Time;durP1;ratioP1;P1;durP2;ratioP2;P2;SDS_P1;SDS_P2;PMS_P1;PMS_P2;Temp;Humidity;BMP_temperature;BMP_pressure;BME280_temperature;BME280_humidity;BME280_pressure;Samples;Min_cycle;Max_cycle;Signal;HPM_P1;HPM_P2
2023/07/04 00:01:46;;;;;;;12.80;3.58;;;21.40;84.70;;;;;;5013188;28;20084;-73
2023/07/04 00:04:13;;;;;;;18.48;4.15;;;21.40;84.80;;;;;;5013309;28;20380;-73
2023/07/04 00:06:39;;;;;;;16.05;3.95;;;21.30;84.80;;;;;;5012180;28;20101;-73
2023/07/04 00:09:05;;;;;;;15.73;4.20;;;21.30;84.90;;;;;;5013517;28;20022;-74
2023/07/04 00:11:31;;;;;;;11.32;3.92;;;21.30;85.10;;;;;;5013332;28;20100;-73
2023/07/04 00:13:56;;;;;;;15.85;4.28;;;21.30;85.20;;;;;;5013228;28;20026;-74
2023/07/04 00:16:22;;;;;;;14.88;3.70;;;21.30;85.40;;;;;;5013351;28;20053;-73
2023/07/04 00:18:48;;;;;;;15.10;3.80;;;21.20;85.30;;;;;;5012240;28;20057;-73
2023/07/04 00:21:14;;;;;;;16.08;3.78;;;21.30;85.40;;;;;;5011021;28;20026;-73
2023/07/04 00:23:45;;;;;;;13.13;3.80;;;21.20;85.60;;;;;;4994046;28;20023;-73
2023/07/04 00:26:12;;;;;;;15.65;4.25;;;21.20;85.70;;;;;;4993564;28;20092;-73
2023/07/04 00:28:42;;;;;;;18.55;4.25;;;21.20;85.80;;;;;;4993368;28;20033;-73
2023/07/04 00:31:10;;;;;;;16.48;3.75;;;21.20;85.90;;;;;;4993955;28;20029;-73
2023/07/04 00:33:36;;;;;;;14.15;3.83;;;21.20;86.10;;;;;;4997755;28;20030;-73
2023/07/04 00:36:09;;;;;;;13.63;3.55;;;21.20;86.10;;;;;;4997591;28;20153;-74
2023/07/04 00:38:36;;;;;;;15.43;3.47;;;21.20;86.30;;;;;;4997419;28;20029;-73
2023/07/04 00:41:06;;;;;;;21.60;4.47;;;21.10;86.30;;;;;;4997163;28;20034;-74
2023/07/04 00:44:01;;;;;;;18.80;3.70;;;21.20;86.40;;;;;;4997645;28;20034;-74
2023/07/04 00:46:53;;;;;;;15.70;4.03;;;21.10;86.50;;;;;;5006185;28;20375;-74
2023/07/04 00:49:26;;;;;;;16.92;4.60;;;21.10;86.60;;;;;;5016478;28;20025;-73
2023/07/04 00:52:04;;;;;;;18.98;4.55;;;21.10;86.80;;;;;;5016985;28;20391;-73
2023/07/04 00:54:36;;;;;;;16.63;3.88;;;21.10;86.80;;;;;;5017058;28;20029;-73
2023/07/04 00:57:04;;;;;;;15.90;4.07;;;21.10;86.90;;;;;;5016334;28;20368;-73
2023/07/04 00:59:45;;;;;;;17.70;3.92;;;21.10;87.10;;;;;;5016895;28;20552;-73
2023/07/04 01:02:21;;;;;;;15.43;4.30;;;21.00;87.30;;;;;;5016890;28;20030;-74
2023/07/04 01:04:48;;;;;;;17.08;4.20;;;21.10;87.80;;;;;;5016818;28;20033;-73
2023/07/04 01:07:55;;;;;;;12.98;3.53;;;21.10;87.80;;;;;;5016532;28;20057;-73
2023/07/04 01:10:32;;;;;;;16.08;3.90;;;21.00;87.90;;;;;;5016585;28;20034;-73
2023/07/04 01:12:58;;;;;;;21.13;4.63;;;21.00;87.90;;;;;;5003035;28;20056;-74
2023/07/04 01:15:24;;;;;;;17.10;4.00;;;21.00;88.00;;;;;;4996867;28;20022;-73
2023/07/04 01:17:51;;;;;;;17.63;4.30;;;21.00;88.10;;;;;;4996895;28;20026;-73
2023/07/04 01:20:17;;;;;;;17.15;4.30;;;20.90;88.20;;;;;;4996904;28;20048;-73
2023/07/04 01:23:08;;;;;;;16.63;3.95;;;21.00;88.20;;;;;;4996689;28;20027;-72
2023/07/04 01:25:45;;;;;;;14.45;3.80;;;21.00;88.20;;;;;;4996553;28;20080;-73
2023/07/04 01:28:13;;;;;;;14.82;4.00;;;21.00;88.60;;;;;;4996583;28;20479;-73
2023/07/04 01:30:42;;;;;;;19.00;4.40;;;20.90;88.30;;;;;;4996751;28;20080;-74
2023/07/04 01:33:08;;;;;;;14.30;4.90;;;20.90;88.40;;;;;;4997629;28;20070;-74
2023/07/04 01:35:35;;;;;;;17.25;3.97;;;20.90;88.50;;;;;;4996419;28;20467;-74
2023/07/04 01:38:01;;;;;;;17.23;4.90;;;20.90;88.60;;;;;;4996347;28;20026;-74
2023/07/04 01:40:27;;;;;;;13.75;4.25;;;20.80;88.70;;;;;;4996277;28;20471;-73
2023/07/04 01:42:53;;;;;;;15.00;4.35;;;20.90;88.90;;;;;;4995436;28;20027;-73
2023/07/04 01:45:19;;;;;;;17.25;4.03;;;20.80;89.00;;;;;;4996476;28;20022;-73
2023/07/04 01:47:45;;;;;;;19.85;4.55;;;20.80;89.20;;;;;;4996301;28;20046;-73
2023/07/04 01:50:12;;;;;;;22.20;4.45;;;20.80;89.30;;;;;;4996296;28;20105;-74
2023/07/04 01:52:39;;;;;;;12.73;4.18;;;20.70;89.40;;;;;;4996185;28;20049;-73
2023/07/04 01:55:06;;;;;;;17.50;4.20;;;20.70;89.40;;;;;;4995960;28;20030;-73
2023/07/04 01:57:32;;;;;;;17.83;3.90;;;20.70;89.70;;;;;;4995985;28;20030;-73
2023/07/04 01:59:57;;;;;;;16.10;4.40;;;20.80;89.80;;;;;;5011373;28;20044;-72
2023/07/04 02:02:23;;;;;;;15.38;3.95;;;20.70;90.00;;;;;;5005163;28;20034;-73
2023/07/04 02:04:49;;;;;;;13.07;4.82;;;20.70;90.00;;;;;;4996181;28;20058;-73
2023/07/04 02:07:14;;;;;;;24.67;4.90;;;20.70;90.00;;;;;;4995849;28;20065;-73
2023/07/04 02:09:42;;;;;;;13.68;4.18;;;20.70;90.00;;;;;;5004785;28;20030;-73
2023/07/04 02:12:09;;;;;;;20.58;4.88;;;20.60;90.10;;;;;;5015184;28;20471;-74
2023/07/04 02:14:34;;;;;;;13.90;3.60;;;20.70;90.40;;;;;;5015097;28;20030;-73
2023/07/04 02:17:00;;;;;;;18.13;4.63;;;20.70;90.20;;;;;;5015304;28;20361;-73
2023/07/04 02:19:25;;;;;;;20.25;5.20;;;20.60;90.20;;;;;;5015284;28;20038;-73
2023/07/04 02:21:51;;;;;;;17.70;4.63;;;20.60;90.30;;;;;;5015418;28;20391;-74
2023/07/04 02:24:16;;;;;;;16.63;4.50;;;20.70;90.30;;;;;;5012412;28;20026;-74
2023/07/04 02:26:42;;;;;;;18.23;4.47;;;20.60;90.30;;;;;;4995764;28;20084;-73
2023/07/04 02:29:08;;;;;;;17.95;4.57;;;20.60;90.40;;;;;;4995323;28;20074;-74
2023/07/04 02:31:33;;;;;;;17.05;4.63;;;20.60;90.40;;;;;;4995747;28;20029;-74
2023/07/04 02:33:59;;;;;;;16.27;4.20;;;20.60;90.40;;;;;;4995407;28;20026;-73
2023/07/04 02:36:25;;;;;;;20.25;4.78;;;20.60;90.50;;;;;;4995458;28;20026;-74
2023/07/04 02:38:50;;;;;;;18.92;5.25;;;20.60;90.40;;;;;;4995003;28;20038;-73
2023/07/04 02:41:16;;;;;;;19.48;4.95;;;20.60;90.40;;;;;;4994052;28;20034;-73
2023/07/04 02:43:41;;;;;;;18.02;4.82;;;20.50;90.40;;;;;;4995396;28;20361;-74
2023/07/04 02:46:08;;;;;;;17.00;4.57;;;20.60;90.50;;;;;;4995117;28;20061;-74
2023/07/04 02:48:34;;;;;;;15.40;4.13;;;20.50;90.50;;;;;;4995199;28;20026;-74
2023/07/04 02:51:00;;;;;;;17.55;4.70;;;20.50;90.60;;;;;;5000841;28;20050;-74
2023/07/04 02:53:26;;;;;;;15.40;4.22;;;20.50;90.60;;;;;;5013998;28;20471;-74
2023/07/04 02:55:53;;;;;;;17.95;4.47;;;20.40;90.60;;;;;;5014557;28;20084;-74
2023/07/04 02:58:19;;;;;;;14.90;4.15;;;20.40;90.60;;;;;;5014619;28;20036;-73
2023/07/04 03:00:47;;;;;;;17.83;4.22;;;20.40;90.60;;;;;;5014608;28;20034;-73
2023/07/04 03:03:13;;;;;;;15.85;4.07;;;20.40;90.70;;;;;;5014483;28;20109;-73
2023/07/04 03:05:39;;;;;;;16.33;4.50;;;20.40;90.70;;;;;;5008562;28;20038;-73
2023/07/04 03:08:05;;;;;;;19.48;5.13;;;20.40;90.80;;;;;;4994701;28;20049;-73
2023/07/04 03:10:31;;;;;;;22.10;5.15;;;20.40;90.80;;;;;;4994680;28;20030;-74
2023/07/04 03:12:57;;;;;;;17.95;4.43;;;20.40;90.80;;;;;;4993623;28;20117;-73
2023/07/04 03:15:23;;;;;;;15.55;5.03;;;20.30;90.80;;;;;;4994753;28;20486;-74
2023/07/04 03:17:49;;;;;;;19.35;4.78;;;20.30;91.00;;;;;;4994583;28;20045;-73
2023/07/04 03:20:15;;;;;;;15.60;4.93;;;20.40;91.10;;;;;;4994303;28;20541;-73
2023/07/04 03:22:42;;;;;;;20.55;5.18;;;20.30;91.40;;;;;;4994758;28;20026;-74
2023/07/04 03:25:09;;;;;;;16.52;3.78;;;20.30;91.10;;;;;;4994475;28;20049;-73
2023/07/04 03:27:37;;;;;;;14.30;4.50;;;20.30;91.20;;;;;;4993160;28;20019;-74
2023/07/04 03:30:05;;;;;;;16.17;4.40;;;20.30;91.30;;;;;;4994349;28;20030;-73
2023/07/04 03:32:31;;;;;;;22.63;4.50;;;20.30;91.30;;;;;;5001179;28;20049;-74
2023/07/04 03:35:01;;;;;;;13.52;4.00;;;20.30;91.30;;;;;;5013091;28;20057;-73
2023/07/04 03:37:30;;;;;;;19.75;4.97;;;20.20;91.30;;;;;;5014087;28;20383;-73
2023/07/04 03:39:57;;;;;;;19.17;5.32;;;20.20;91.40;;;;;;5013649;28;20061;-74
2023/07/04 03:42:26;;;;;;;19.52;4.90;;;20.20;91.40;;;;;;5013878;28;20041;-74
2023/07/04 03:44:52;;;;;;;22.23;5.03;;;20.20;91.50;;;;;;5013906;28;20030;-74
2023/07/04 03:47:18;;;;;;;17.55;4.75;;;20.20;91.50;;;;;;5013884;28;20018;-74
2023/07/04 03:49:43;;;;;;;18.15;4.63;;;20.20;91.50;;;;;;5011841;28;20041;-74
2023/07/04 03:52:09;;;;;;;16.58;5.47;;;20.20;91.50;;;;;;5013737;28;20026;-73
2023/07/04 03:54:35;;;;;;;23.40;5.72;;;20.20;91.50;;;;;;5009464;28;20402;-74
2023/07/04 03:57:00;;;;;;;18.73;4.75;;;20.20;91.50;;;;;;5013420;28;20026;-73
2023/07/04 03:59:26;;;;;;;15.82;3.83;;;20.10;91.60;;;;;;5010820;28;20113;-73
2023/07/04 04:01:52;;;;;;;19.58;4.78;;;20.10;91.50;;;;;;5013530;28;20095;-74
2023/07/04 04:04:19;;;;;;;30.95;6.60;;;20.10;91.60;;;;;;5013314;28;20033;-73
2023/07/04 04:06:48;;;;;;;18.80;4.65;;;20.10;91.60;;;;;;5011396;28;20379;-72
2023/07/04 04:09:14;;;;;;;19.42;4.70;;;20.10;91.50;;;;;;5013465;28;20026;-72
2023/07/04 04:11:40;;;;;;;18.05;3.90;;;20.20;91.60;;;;;;5013472;28;20038;-73
2023/07/04 04:14:05;;;;;;;20.23;6.00;;;20.10;91.60;;;;;;5013539;28;20034;-73
2023/07/04 04:16:32;;;;;;;18.27;4.32;;;20.00;91.60;;;;;;5013243;28;20022;-73
2023/07/04 04:18:58;;;;;;;16.67;4.30;;;20.00;91.60;;;;;;5012177;28;20542;-73
2023/07/04 04:21:24;;;;;;;21.35;5.28;;;20.00;91.70;;;;;;4993718;28;20030;-73
2023/07/04 04:23:52;;;;;;;19.95;4.72;;;20.00;91.70;;;;;;4993660;28;20093;-73
2023/07/04 04:26:19;;;;;;;19.48;4.75;;;20.00;91.80;;;;;;4993478;28;20030;-73
2023/07/04 04:28:44;;;;;;;14.77;5.07;;;20.00;91.70;;;;;;4993756;28;20065;-74
2023/07/04 04:31:11;;;;;;;13.90;4.47;;;20.00;91.80;;;;;;4993523;28;20457;-73
2023/07/04 04:33:37;;;;;;;14.95;4.90;;;20.00;91.80;;;;;;4993537;28;20447;-74
2023/07/04 04:36:03;;;;;;;17.05;4.47;;;20.00;91.80;;;;;;4993536;28;20018;-72
2023/07/04 04:38:29;;;;;;;19.15;4.10;;;19.90;91.90;;;;;;4993575;28;20379;-73
2023/07/04 04:41:02;;;;;;;21.10;4.95;;;19.90;91.90;;;;;;4992195;28;20505;-73
2023/07/04 04:43:28;;;;;;;13.45;4.47;;;19.90;91.90;;;;;;4993573;28;20030;-73
2023/07/04 04:45:54;;;;;;;20.40;4.97;;;19.90;91.90;;;;;;4993442;28;20373;-73
2023/07/04 04:48:29;;;;;;;19.33;4.72;;;19.90;91.90;;;;;;4993198;28;20029;-73
2023/07/04 04:50:55;;;;;;;16.58;4.88;;;19.90;92.00;;;;;;5008178;28;20525;-73
2023/07/04 04:53:24;;;;;;;23.67;5.68;;;19.90;92.00;;;;;;5012690;28;20029;-75
2023/07/04 04:55:51;;;;;;;19.05;5.07;;;19.90;92.00;;;;;;5010166;28;20018;-74
2023/07/04 04:58:17;;;;;;;19.55;5.40;;;19.90;92.10;;;;;;5012508;28;20161;-74
2023/07/04 05:00:44;;;;;;;22.83;5.45;;;19.90;92.00;;;;;;4998638;28;20053;-73
2023/07/04 05:03:10;;;;;;;19.63;4.60;;;19.90;92.10;;;;;;5011478;28;20022;-73
2023/07/04 05:05:36;;;;;;;18.23;4.60;;;19.90;92.10;;;;;;5012910;28;20100;-73
2023/07/04 05:08:02;;;;;;;22.77;5.68;;;19.90;92.10;;;;;;5012871;28;20050;-74
2023/07/04 05:10:27;;;;;;;18.63;4.47;;;19.90;92.20;;;;;;5002079;28;20531;-73
2023/07/04 05:12:53;;;;;;;17.50;4.95;;;19.90;92.20;;;;;;5013240;28;20494;-74
2023/07/04 05:15:19;;;;;;;19.98;4.55;;;19.90;92.10;;;;;;5013722;28;20420;-74
2023/07/04 05:17:44;;;;;;;17.05;4.82;;;19.90;92.20;;;;;;5015493;28;20440;-73
2023/07/04 05:20:14;;;;;;;18.23;5.40;;;19.90;92.20;;;;;;5018063;28;20030;-72
2023/07/04 05:22:41;;;;;;;21.75;5.57;;;19.90;92.20;;;;;;5008323;28;20112;-74
2023/07/04 05:25:07;;;;;;;21.20;5.18;;;19.90;92.20;;;;;;5006530;28;20080;-74
2023/07/04 05:27:32;;;;;;;17.35;5.47;;;19.90;92.20;;;;;;5002892;28;20030;-74
2023/07/04 05:29:58;;;;;;;15.60;4.93;;;19.90;92.20;;;;;;5013976;28;20360;-75
2023/07/04 05:32:23;;;;;;;20.98;5.03;;;19.90;92.20;;;;;;5015866;28;20068;-74
2023/07/04 05:34:49;;;;;;;17.70;5.15;;;19.90;92.10;;;;;;5003655;28;20495;-75
2023/07/04 05:37:16;;;;;;;19.27;5.05;;;20.00;92.10;;;;;;4996388;28;20022;-74
2023/07/04 05:39:41;;;;;;;17.60;4.70;;;19.90;92.10;;;;;;5001762;28;20076;-74
2023/07/04 05:42:07;;;;;;;18.98;4.40;;;20.00;92.10;;;;;;5003995;28;20038;-74
2023/07/04 05:44:32;;;;;;;16.38;4.32;;;20.00;92.30;;;;;;5005392;28;20083;-74
2023/07/04 05:46:58;;;;;;;22.33;4.22;;;20.00;92.20;;;;;;5011898;28;20466;-75
2023/07/04 05:49:24;;;;;;;15.00;4.50;;;20.10;92.20;;;;;;5008144;28;20479;-74
2023/07/04 05:51:49;;;;;;;19.50;5.10;;;20.10;92.00;;;;;;5009883;28;20038;-74
2023/07/04 05:54:15;;;;;;;14.68;3.80;;;20.10;91.70;;;;;;5001147;28;20029;-74
2023/07/04 05:56:40;;;;;;;20.60;5.50;;;20.20;91.60;;;;;;5001616;28;20013;-75
2023/07/04 05:59:09;;;;;;;16.33;3.92;;;20.30;91.60;;;;;;5010239;28;20072;-73
2023/07/04 06:01:41;;;;;;;19.60;4.05;;;20.30;91.30;;;;;;4996004;28;20089;-73
2023/07/04 06:04:08;;;;;;;;;;;20.40;91.20;;;;;;5008887;28;20026;-74
2023/07/04 06:06:37;;;;;;;12.90;3.83;;;20.40;90.90;;;;;;5009022;28;20004;-73
2023/07/04 06:09:06;;;;;;;13.73;3.85;;;20.50;90.80;;;;;;4996531;28;20066;-73
2023/07/04 06:11:33;;;;;;;12.90;3.25;;;20.50;90.80;;;;;;5003386;28;20573;-73
2023/07/04 06:14:02;;;;;;;14.75;4.18;;;20.60;90.60;;;;;;4996145;28;20042;-73
2023/07/04 06:16:27;;;;;;;13.75;3.67;;;20.70;90.90;;;;;;4998983;28;20066;-72
2023/07/04 06:18:53;;;;;;;16.58;4.05;;;20.70;90.50;;;;;;5014171;28;20467;-72
2023/07/04 06:21:21;;;;;;;11.00;3.45;;;20.80;90.20;;;;;;5013464;28;20563;-73
2023/07/04 06:23:47;;;;;;;15.55;4.68;;;20.80;90.30;;;;;;5015264;28;20026;-72
2023/07/04 06:26:13;;;;;;;9.57;2.92;;;20.80;90.30;;;;;;5005943;28;20539;-72
2023/07/04 06:28:41;;;;;;;11.52;3.40;;;20.90;90.10;;;;;;5001247;28;20037;-73
2023/07/04 06:31:17;;;;;;;10.70;3.15;;;20.90;90.00;;;;;;5007718;28;20063;-73
2023/07/04 06:33:43;;;;;;;9.60;2.95;;;20.90;89.90;;;;;;5022300;28;20025;-74
2023/07/04 06:36:13;;;;;;;13.75;3.58;;;21.00;89.50;;;;;;5014907;28;20095;-73
2023/07/04 06:38:39;;;;;;;14.73;3.80;;;21.00;89.40;;;;;;5011389;28;20021;-73
2023/07/04 06:41:10;;;;;;;10.52;3.20;;;21.00;89.30;;;;;;4995398;28;20085;-73
2023/07/04 06:43:36;;;;;;;6.70;2.50;;;21.00;89.10;;;;;;5011532;28;20017;-73
2023/07/04 06:46:02;;;;;;;11.52;2.63;;;21.10;88.60;;;;;;5022810;28;20041;-73
2023/07/04 06:48:29;;;;;;;12.02;2.63;;;21.10;88.10;;;;;;5011744;28;20029;-73
2023/07/04 06:50:56;;;;;;;12.55;3.13;;;21.10;87.60;;;;;;4999327;28;20023;-73
2023/07/04 06:53:22;;;;;;;13.95;2.78;;;21.20;88.50;;;;;;5011205;28;20021;-73
2023/07/04 06:55:47;;;;;;;14.18;2.78;;;21.20;88.80;;;;;;5006030;28;20427;-73
2023/07/04 06:58:15;;;;;;;8.93;2.55;;;21.20;88.40;;;;;;4999640;28;20491;-74
2023/07/04 07:00:41;;;;;;;9.77;2.88;;;21.20;87.90;;;;;;5011236;28;20502;-74
2023/07/04 07:03:06;;;;;;;8.70;2.42;;;21.30;87.10;;;;;;4999727;28;20097;-74
2023/07/04 07:05:36;;;;;;;9.70;2.58;;;21.30;86.80;;;;;;5006310;28;20038;-74
2023/07/04 07:08:01;;;;;;;8.70;2.15;;;21.30;87.50;;;;;;5016435;28;20018;-74
2023/07/04 07:10:27;;;;;;;8.10;2.38;;;21.40;86.80;;;;;;5004287;28;20030;-74
2023/07/04 07:12:52;;;;;;;8.27;2.50;;;21.40;86.60;;;;;;4993918;28;20037;-74
2023/07/04 07:15:19;;;;;;;9.65;2.50;;;21.40;86.40;;;;;;4995009;28;20030;-66
2023/07/04 07:17:44;;;;;;;8.27;2.22;;;21.40;86.00;;;;;;4996339;28;20554;-72
2023/07/04 07:20:10;;;;;;;11.85;2.30;;;21.40;86.00;;;;;;5006166;28;20171;-77
2023/07/04 07:22:36;;;;;;;9.60;2.50;;;21.50;85.80;;;;;;5000905;28;20094;-75
2023/07/04 07:25:01;;;;;;;11.18;2.13;;;21.50;85.00;;;;;;4996804;28;20365;-77
2023/07/04 07:27:27;;;;;;;13.30;2.70;;;21.50;84.60;;;;;;5011312;28;20053;-80
2023/07/04 07:29:53;;;;;;;6.95;2.25;;;21.60;84.50;;;;;;4994842;28;20046;-77
2023/07/04 07:32:18;;;;;;;12.07;2.30;;;21.60;84.20;;;;;;4998610;28;20045;-78
2023/07/04 07:34:44;;;;;;;7.55;2.17;;;21.60;84.10;;;;;;5004802;28;20164;-75
2023/07/04 07:37:12;;;;;;;11.18;2.30;;;21.70;83.90;;;;;;4991610;28;20015;-75
2023/07/04 07:39:38;;;;;;;9.43;2.80;;;21.70;83.90;;;;;;5007257;28;20041;-72
2023/07/04 07:42:04;;;;;;;8.95;2.60;;;21.70;83.60;;;;;;4998285;28;20030;-75
2023/07/04 07:44:29;;;;;;;7.63;2.30;;;21.80;83.50;;;;;;5008451;28;20058;-75
2023/07/04 07:46:55;;;;;;;10.27;2.10;;;21.80;83.40;;;;;;5000619;28;20085;-69
2023/07/04 07:49:20;;;;;;;7.25;2.40;;;21.80;83.20;;;;;;5008143;28;20383;-69
2023/07/04 07:51:46;;;;;;;8.10;2.00;;;21.90;82.70;;;;;;5011285;28;20041;-76
2023/07/04 07:54:14;;;;;;;6.85;2.03;;;21.90;82.30;;;;;;5009304;28;20034;-72
2023/07/04 07:56:44;;;;;;;7.55;1.65;;;21.90;81.80;;;;;;4999468;28;20491;-77
2023/07/04 07:59:10;;;;;;;8.60;2.00;;;21.90;81.50;;;;;;4996152;28;20037;-73
2023/07/04 08:01:36;;;;;;;7.47;2.00;;;22.00;81.20;;;;;;5002122;28;20030;-74
2023/07/04 08:04:04;;;;;;;7.78;2.00;;;22.00;81.10;;;;;;5005080;28;20025;-74
2023/07/04 08:06:40;;;;;;;7.10;2.08;;;22.00;80.60;;;;;;5009243;28;20026;-75
2023/07/04 08:09:10;;;;;;;9.25;2.15;;;22.10;80.10;;;;;;4999875;28;20482;-76
2023/07/04 08:11:36;;;;;;;10.88;2.15;;;22.10;80.00;;;;;;5013147;28;20492;-74
2023/07/04 08:14:01;;;;;;;8.80;2.35;;;22.10;79.70;;;;;;5000649;28;20427;-73
2023/07/04 08:16:41;;;;;;;8.30;2.03;;;22.10;79.60;;;;;;5007676;28;20506;-73
2023/07/04 08:19:07;;;;;;;9.43;2.00;;;22.10;79.60;;;;;;4994875;28;20049;-78
2023/07/04 08:21:32;;;;;;;11.75;1.95;;;22.10;79.50;;;;;;5004379;28;20026;-76
2023/07/04 08:23:58;;;;;;;7.97;1.60;;;22.20;79.40;;;;;;5011078;28;20112;-75
2023/07/04 08:26:25;;;;;;;5.25;1.70;;;22.20;79.20;;;;;;5012861;28;20014;-74
2023/07/04 08:28:56;;;;;;;6.20;1.50;;;22.20;79.00;;;;;;5002392;28;20038;-74
2023/07/04 08:31:23;;;;;;;6.50;1.70;;;22.30;78.80;;;;;;4991426;28;20117;-70
2023/07/04 08:33:49;;;;;;;6.95;1.90;;;22.30;78.50;;;;;;5008475;28;20058;-70
2023/07/04 08:36:16;;;;;;;6.78;2.05;;;22.30;78.40;;;;;;5001913;28;20053;-65
2023/07/04 08:38:43;;;;;;;10.70;1.80;;;22.30;78.30;;;;;;5005805;28;20022;-65
2023/07/04 08:41:24;;;;;;;8.57;1.98;;;22.40;77.80;;;;;;4992953;28;20030;-69
2023/07/04 08:43:53;;;;;;;8.05;1.80;;;22.40;77.80;;;;;;5000142;28;20104;-70
2023/07/04 08:46:20;;;;;;;9.30;1.90;;;22.40;77.40;;;;;;5006563;28;20057;-73
2023/07/04 08:48:47;;;;;;;5.22;1.52;;;22.40;78.10;;;;;;5008599;28;20124;-69
2023/07/04 08:51:22;;;;;;;6.63;2.15;;;22.50;77.20;;;;;;5005667;28;20026;-68
2023/07/04 08:53:55;;;;;;;6.28;1.33;;;22.50;77.10;;;;;;4999627;28;20049;-66
2023/07/04 08:56:34;;;;;;;5.88;1.52;;;22.50;76.80;;;;;;5002115;28;20018;-69
2023/07/04 08:59:18;;;;;;;6.13;1.77;;;22.50;77.10;;;;;;5004165;28;20026;-66
2023/07/04 09:01:55;;;;;;;8.68;1.50;;;22.50;76.50;;;;;;5006920;28;20386;-66
2023/07/04 09:04:33;;;;;;;7.47;1.90;;;22.60;76.70;;;;;;5001079;28;20053;-66
2023/07/04 09:07:13;;;;;;;9.95;1.77;;;22.60;76.80;;;;;;5003823;28;20034;-72
2023/07/04 09:10:01;;;;;;;6.18;1.60;;;22.70;76.50;;;;;;5003551;28;20064;-75
2023/07/04 09:12:34;;;;;;;8.60;2.28;;;22.70;76.70;;;;;;5004205;28;20043;-77
2023/07/04 09:15:30;;;;;;;4.82;1.60;;;22.70;76.40;;;;;;4997824;28;20084;-73
2023/07/04 09:18:06;;;;;;;8.93;2.03;;;22.70;76.70;;;;;;5006930;28;20523;-76
2023/07/04 09:20:37;;;;;;;8.57;2.05;;;22.70;76.80;;;;;;5002744;28;20080;-73
2023/07/04 09:23:09;;;;;;;5.60;1.40;;;22.80;76.00;;;;;;5002446;28;20090;-73
2023/07/04 09:25:35;;;;;;;6.53;1.52;;;22.80;76.20;;;;;;5001982;28;20065;-73
2023/07/04 09:28:01;;;;;;;6.13;1.65;;;22.80;75.90;;;;;;5000384;28;20058;-71
2023/07/04 09:30:26;;;;;;;4.13;1.33;;;22.80;76.00;;;;;;4999308;28;20499;-74
2023/07/04 09:32:52;;;;;;;12.10;1.90;;;22.80;75.90;;;;;;5010126;28;20034;-71
2023/07/04 09:35:18;;;;;;;4.35;1.60;;;22.80;75.90;;;;;;5011551;28;20036;-70
2023/07/04 09:37:59;;;;;;;5.85;1.70;;;22.90;75.70;;;;;;5009530;28;20026;-69
2023/07/04 09:40:41;;;;;;;6.63;1.45;;;22.90;76.60;;;;;;4998112;28;20045;-75
2023/07/04 09:43:07;;;;;;;;;;;22.90;76.00;;;;;;5003516;28;20026;-71
2023/07/04 09:45:33;;;;;;;5.70;1.60;;;22.90;76.20;;;;;;5007476;28;20016;-72
2023/07/04 09:48:00;;;;;;;7.10;1.63;;;22.90;75.70;;;;;;5008006;28;20521;-71
2023/07/04 09:50:31;;;;;;;7.60;2.20;;;22.90;75.60;;;;;;5002398;28;20054;-73
2023/07/04 09:53:04;;;;;;;8.45;1.83;;;22.90;75.20;;;;;;5006577;28;20026;-75
2023/07/04 09:55:32;;;;;;;10.05;1.67;;;23.00;75.60;;;;;;5004113;28;20031;-73
2023/07/04 09:58:21;;;;;;;5.18;1.63;;;23.00;75.80;;;;;;5009544;28;20032;-73
2023/07/04 10:01:01;;;;;;;5.22;1.67;;;23.10;76.60;;;;;;5003116;28;20037;-72
2023/07/04 10:03:27;;;;;;;10.35;2.03;;;23.10;75.70;;;;;;4996639;28;20396;-73
2023/07/04 10:05:53;;;;;;;7.70;2.03;;;23.10;75.40;;;;;;4997637;28;20022;-73
2023/07/04 10:08:18;;;;;;;7.60;1.90;;;23.10;75.50;;;;;;5004818;28;20080;-73
2023/07/04 10:10:57;;;;;;;9.65;2.05;;;23.10;75.70;;;;;;5015326;28;20471;-73
2023/07/04 10:13:33;;;;;;;6.65;2.03;;;23.20;75.80;;;;;;5006602;28;20483;-73
2023/07/04 10:15:59;;;;;;;6.85;2.15;;;23.20;75.40;;;;;;5006007;28;20486;-72
2023/07/04 10:18:31;;;;;;;9.88;2.20;;;23.20;75.30;;;;;;5002903;28;20089;-72
2023/07/04 10:20:59;;;;;;;8.18;2.80;;;23.20;75.00;;;;;;5000691;28;20030;-72
2023/07/04 10:23:26;;;;;;;10.02;2.38;;;23.20;75.20;;;;;;5003063;28;20384;-73
2023/07/04 10:25:55;;;;;;;7.65;2.15;;;23.20;75.20;;;;;;5002905;28;20018;-73
2023/07/04 10:28:27;;;;;;;8.40;2.33;;;23.20;75.10;;;;;;5001255;28;20030;-72
2023/07/04 10:30:59;;;;;;;6.20;2.25;;;23.30;75.00;;;;;;5010826;28;20100;-71
2023/07/04 10:33:41;;;;;;;7.68;2.15;;;23.30;75.00;;;;;;5000989;28;20527;-71
2023/07/04 10:36:14;;;;;;;7.30;1.90;;;23.30;74.70;;;;;;5008251;28;20030;-73
2023/07/04 10:38:49;;;;;;;7.30;2.30;;;23.30;75.40;;;;;;5017892;28;20022;-71
2023/07/04 10:41:36;;;;;;;5.97;2.42;;;23.30;75.50;;;;;;5006716;28;20035;-71
2023/07/04 10:44:09;;;;;;;8.60;2.53;;;23.40;75.90;;;;;;5008069;28;20088;-71
2023/07/04 10:46:46;;;;;;;9.77;3.10;;;23.40;76.10;;;;;;4997540;28;20034;-73
2023/07/04 10:49:17;;;;;;;6.38;2.70;;;23.40;76.70;;;;;;5003372;28;20581;-71
2023/07/04 10:51:44;;;;;;;8.47;2.80;;;23.40;76.90;;;;;;5002704;28;20034;-65
2023/07/04 10:54:13;;;;;;;7.18;2.47;;;23.50;77.10;;;;;;5008113;28;20479;-71
2023/07/04 10:56:42;;;;;;;6.97;2.42;;;23.50;77.70;;;;;;5006091;28;20092;-71
2023/07/04 10:59:25;;;;;;;9.18;3.30;;;23.50;79.00;;;;;;5007599;28;20087;-71
2023/07/04 11:01:55;;;;;;;7.82;2.90;;;23.60;78.50;;;;;;5004089;28;20065;-71
2023/07/04 11:04:22;;;;;;;8.63;3.05;;;23.60;82.70;;;;;;5004268;28;20037;-72
2023/07/04 11:07:06;;;;;;;7.72;3.30;;;23.60;84.90;;;;;;5003554;28;20084;-72
2023/07/04 11:09:42;;;;;;;10.90;2.85;;;23.60;86.00;;;;;;5004757;28;20025;-73
2023/07/04 11:12:15;;;;;;;8.70;2.92;;;23.60;86.10;;;;;;5004579;28;20382;-73
2023/07/04 11:14:42;;;;;;;9.35;2.83;;;23.60;85.80;;;;;;5008199;28;20014;-72
2023/07/04 11:17:16;;;;;;;9.55;3.22;;;23.60;85.20;;;;;;5002974;28;20033;-74
2023/07/04 11:20:07;;;;;;;5.78;2.75;;;23.70;84.70;;;;;;5006972;28;20459;-74
2023/07/04 11:22:51;;;;;;;9.68;3.20;;;23.70;83.80;;;;;;4997748;28;20524;-74
2023/07/04 11:25:31;;;;;;;9.30;3.33;;;23.60;82.80;;;;;;5002139;28;20026;-74
2023/07/04 11:28:18;;;;;;;9.00;3.70;;;23.60;81.40;;;;;;5006070;28;20391;-73
2023/07/04 11:30:48;;;;;;;11.82;3.50;;;23.70;80.40;;;;;;5008451;28;20171;-74
2023/07/04 11:33:51;;;;;;;9.80;3.53;;;23.70;79.80;;;;;;5007205;28;20403;-74
2023/07/04 11:36:34;;;;;;;7.80;3.10;;;23.70;79.70;;;;;;5004162;28;20133;-72
2023/07/04 11:39:06;;;;;;;8.38;3.25;;;23.70;79.50;;;;;;4998362;28;20494;-71
2023/07/04 11:41:40;;;;;;;11.02;3.47;;;23.70;79.60;;;;;;5011586;28;20522;-73
2023/07/04 11:44:29;;;;;;;10.95;3.53;;;23.70;79.40;;;;;;5011684;28;20073;-70
2023/07/04 11:47:07;;;;;;;5.53;2.58;;;23.70;79.20;;;;;;5012418;28;20026;-73
2023/07/04 11:49:34;;;;;;;5.88;2.70;;;23.70;79.20;;;;;;5002884;28;20026;-74
2023/07/04 11:52:19;;;;;;;10.05;3.17;;;23.80;79.10;;;;;;4992205;28;20490;-74
2023/07/04 11:54:54;;;;;;;11.48;3.60;;;23.80;78.90;;;;;;5005348;28;20109;-72
2023/07/04 11:57:23;;;;;;;11.50;3.05;;;23.80;78.70;;;;;;5008046;28;20391;-74
2023/07/04 11:59:48;;;;;;;9.75;3.53;;;23.80;78.70;;;;;;4995698;28;20037;-73
2023/07/04 12:02:25;;;;;;;9.32;3.25;;;23.80;78.30;;;;;;5007898;28;20109;-74
2023/07/04 12:04:51;;;;;;;7.38;2.97;;;23.80;78.10;;;;;;5006691;28;20053;-74
2023/07/04 12:07:22;;;;;;;13.40;3.83;;;23.80;78.20;;;;;;5008338;28;20054;-73
2023/07/04 12:10:29;;;;;;;8.15;3.60;;;23.80;77.80;;;;;;5003825;28;20076;-73
2023/07/04 12:13:03;;;;;;;5.88;3.03;;;23.80;78.00;;;;;;4988086;28;20027;-73
2023/07/04 12:15:31;;;;;;;8.40;3.28;;;23.80;78.20;;;;;;4989539;28;20407;-73
2023/07/04 12:18:12;;;;;;;11.63;3.22;;;23.80;78.20;;;;;;4998007;28;20403;-73
2023/07/04 12:20:39;;;;;;;12.55;3.80;;;23.90;78.30;;;;;;5005220;28;20223;-73
2023/07/04 12:23:09;;;;;;;8.98;3.20;;;23.90;78.10;;;;;;5000609;28;20029;-70
2023/07/04 12:25:41;;;;;;;8.38;3.35;;;23.90;78.40;;;;;;5005152;28;20387;-71
2023/07/04 12:28:09;;;;;;;9.80;2.75;;;23.90;78.40;;;;;;5001914;28;20060;-71
2023/07/04 12:30:39;;;;;;;9.95;3.20;;;24.00;77.80;;;;;;4999110;28;20030;-70
2023/07/04 12:33:17;;;;;;;11.20;3.22;;;24.00;78.10;;;;;;5009589;28;20061;-71
2023/07/04 12:35:51;;;;;;;8.30;2.72;;;23.90;78.00;;;;;;5011881;28;20153;-71
2023/07/04 12:38:17;;;;;;;7.40;2.97;;;24.00;78.10;;;;;;5002285;28;20065;-72
2023/07/04 12:40:45;;;;;;;6.43;3.17;;;24.00;78.10;;;;;;5013673;28;20093;-71
2023/07/04 12:43:14;;;;;;;8.80;3.60;;;24.00;77.90;;;;;;5004043;28;20023;-71
2023/07/04 12:45:39;;;;;;;8.73;3.30;;;24.00;77.40;;;;;;5010224;28;20076;-69
2023/07/04 12:48:07;;;;;;;9.18;3.22;;;24.00;77.00;;;;;;5006518;28;20022;-70
2023/07/04 12:50:34;;;;;;;7.35;3.75;;;24.10;77.10;;;;;;5012339;28;20120;-71
2023/07/04 12:53:00;;;;;;;9.27;3.55;;;24.00;77.10;;;;;;5016253;28;20044;-69